AAL2581 KPHX-KPSP
Flight info
| Callsign | AAL2581 |
|---|---|
| Flight time | N/A |
| Altitude | 26000 |
| Route | KEENS3 HRRBR CURIV RDBUL1 |
| Aircraft | A321/M-VGDW/C |
Departure
| Time | 2026-04-30 22:50 |
|---|---|
| Airport | Phoenix Sky Harbor International Airport (KPHX) |
Arrival
| Time | N/A |
|---|---|
| Airport | Palm Springs International Airport (KPSP) |
| Time | Latitude | Longitude | Altitude | Speed | Heading |
|---|---|---|---|---|---|
| 2026-04-30 22:21 | 33.43752 | -111.99983 | 1156 ft | 0 kts | 90° |
| 2026-04-30 22:39 | 33.43732 | -112.00030 | 1154 ft | 3 kts | 11° |
| 2026-04-30 22:40 | 33.43702 | -112.00032 | 1155 ft | 0 kts | 0° |
| 2026-04-30 22:42 | 33.43705 | -112.00032 | 1155 ft | 2 kts | 0° |
| 2026-04-30 22:43 | 33.43809 | -112.00033 | 1154 ft | 10 kts | 359° |
| 2026-04-30 22:43 | 33.43902 | -111.99921 | 1153 ft | 16 kts | 86° |
| 2026-04-30 22:44 | 33.43905 | -111.99624 | 1151 ft | 19 kts | 89° |
| 2026-04-30 22:45 | 33.43764 | -111.99229 | 1153 ft | 15 kts | 180° |
| 2026-04-30 22:45 | 33.43495 | -111.99230 | 1151 ft | 21 kts | 180° |
| 2026-04-30 22:46 | 33.43277 | -111.99230 | 1155 ft | 10 kts | 180° |
| 2026-04-30 22:47 | 33.43216 | -111.99258 | 1153 ft | 4 kts | 218° |
| 2026-04-30 22:47 | 33.43190 | -111.99286 | 1158 ft | 5 kts | 223° |
| 2026-04-30 22:48 | 33.43117 | -111.99355 | 1157 ft | 8 kts | 208° |
| 2026-04-30 22:49 | 33.43103 | -111.99396 | 1159 ft | 0 kts | 271° |
| 2026-04-30 22:49 | 33.43103 | -111.99416 | 1157 ft | 12 kts | 271° |
| 2026-04-30 22:50 | 33.43065 | -112.03610 | 1938 ft | 173 kts | 266° |
| 2026-04-30 22:51 | 33.42909 | -112.06487 | 3157 ft | 180 kts | 266° |
| 2026-04-30 22:51 | 33.42316 | -112.09648 | 3766 ft | 208 kts | 249° |
| 2026-04-30 22:52 | 33.41774 | -112.11317 | 4076 ft | 222 kts | 249° |
| 2026-04-30 22:52 | 33.40537 | -112.15068 | 4833 ft | 258 kts | 249° |
| 2026-04-30 22:53 | 33.39343 | -112.19199 | 6256 ft | 268 kts | 261° |
| 2026-04-30 22:53 | 33.39603 | -112.23671 | 7718 ft | 275 kts | 278° |
| 2026-04-30 22:53 | 33.39936 | -112.25958 | 8536 ft | 276 kts | 279° |
| 2026-04-30 22:54 | 33.40639 | -112.30492 | 10039 ft | 282 kts | 279° |
| 2026-04-30 22:55 | 33.41768 | -112.37947 | 11031 ft | 333 kts | 279° |
| 2026-04-30 22:55 | 33.42598 | -112.43600 | 11932 ft | 353 kts | 278° |